sensor_id;sensor_type;location;lat;lon;timestamp;pressure;altitude;pressure_sealevel;temperature;humidity
23363;BME280;11853;48.080;11.960;2023-08-07T00:00:42;94478.66;;;12.77;100.00
23363;BME280;11853;48.080;11.960;2023-08-07T00:03:07;94467.34;;;12.75;100.00
23363;BME280;11853;48.080;11.960;2023-08-07T00:05:33;94475.03;;;12.70;100.00
23363;BME280;11853;48.080;11.960;2023-08-07T00:07:59;94476.16;;;12.76;100.00
23363;BME280;11853;48.080;11.960;2023-08-07T00:10:24;94471.38;;;12.71;100.00
23363;BME280;11853;48.080;11.960;2023-08-07T00:12:50;94470.34;;;12.72;100.00
23363;BME280;11853;48.080;11.960;2023-08-07T00:15:15;94473.06;;;12.64;100.00
23363;BME280;11853;48.080;11.960;2023-08-07T00:17:41;94474.53;;;12.67;100.00
23363;BME280;11853;48.080;11.960;2023-08-07T00:20:07;94475.72;;;12.64;100.00
23363;BME280;11853;48.080;11.960;2023-08-07T00:22:33;94473.38;;;12.69;100.00
23363;BME280;11853;48.080;11.960;2023-08-07T00:24:59;94478.69;;;12.69;100.00
23363;BME280;11853;48.080;11.960;2023-08-07T00:27:25;94476.03;;;12.69;100.00
23363;BME280;11853;48.080;11.960;2023-08-07T00:29:50;94473.38;;;12.69;100.00
23363;BME280;11853;48.080;11.960;2023-08-07T00:32:16;94475.72;;;12.64;100.00
23363;BME280;11853;48.080;11.960;2023-08-07T00:34:42;94480.06;;;12.65;100.00
23363;BME280;11853;48.080;11.960;2023-08-07T00:37:07;94477.69;;;12.70;100.00
23363;BME280;11853;48.080;11.960;2023-08-07T00:39:33;94477.88;;;12.69;100.00
23363;BME280;11853;48.080;11.960;2023-08-07T00:41:58;94475.72;;;12.64;100.00
23363;BME280;11853;48.080;11.960;2023-08-07T00:44:24;94477.25;;;12.58;100.00
23363;BME280;11853;48.080;11.960;2023-08-07T00:46:50;94482.78;;;12.49;100.00
23363;BME280;11853;48.080;11.960;2023-08-07T00:49:16;94475.97;;;12.46;100.00
23363;BME280;11853;48.080;11.960;2023-08-07T00:51:43;94477.06;;;12.29;100.00
23363;BME280;11853;48.080;11.960;2023-08-07T00:54:10;94480.88;;;12.26;100.00
23363;BME280;11853;48.080;11.960;2023-08-07T00:56:37;94475.06;;;12.31;100.00
23363;BME280;11853;48.080;11.960;2023-08-07T00:59:03;94475.25;;;12.21;100.00
23363;BME280;11853;48.080;11.960;2023-08-07T01:01:29;94479.44;;;12.07;100.00
23363;BME280;11853;48.080;11.960;2023-08-07T01:03:55;94489.25;;;12.07;100.00
23363;BME280;11853;48.080;11.960;2023-08-07T01:06:20;94479.16;;;12.02;100.00
23363;BME280;11853;48.080;11.960;2023-08-07T01:08:46;94480.59;;;12.13;100.00
23363;BME280;11853;48.080;11.960;2023-08-07T01:11:21;94482.28;;;12.06;100.00
23363;BME280;11853;48.080;11.960;2023-08-07T01:16:40;94488.13;;;11.93;100.00
23363;BME280;11853;48.080;11.960;2023-08-07T01:19:19;94487.16;;;11.86;100.00
23363;BME280;11853;48.080;11.960;2023-08-07T01:21:48;94490.78;;;11.85;100.00
23363;BME280;11853;48.080;11.960;2023-08-07T01:24:14;94492.66;;;11.76;100.00
23363;BME280;11853;48.080;11.960;2023-08-07T01:26:40;94502.41;;;11.76;100.00
23363;BME280;11853;48.080;11.960;2023-08-07T01:29:31;94509.91;;;11.72;100.00
23363;BME280;11853;48.080;11.960;2023-08-07T01:32:00;94502.28;;;11.61;100.00
23363;BME280;11853;48.080;11.960;2023-08-07T01:34:29;94505.59;;;11.63;100.00
23363;BME280;11853;48.080;11.960;2023-08-07T01:36:56;94503.28;;;11.60;100.00
23363;BME280;11853;48.080;11.960;2023-08-07T01:39:23;94513.25;;;11.66;100.00
23363;BME280;11853;48.080;11.960;2023-08-07T01:41:50;94509.56;;;11.67;100.00
23363;BME280;11853;48.080;11.960;2023-08-07T01:44:16;94504.25;;;11.67;100.00
23363;BME280;11853;48.080;11.960;2023-08-07T01:46:41;94495.66;;;11.65;100.00
23363;BME280;11853;48.080;11.960;2023-08-07T01:49:07;94507.25;;;11.56;100.00
23363;BME280;11853;48.080;11.960;2023-08-07T01:51:32;94505.13;;;11.51;100.00
23363;BME280;11853;48.080;11.960;2023-08-07T01:53:58;94506.44;;;11.55;100.00
23363;BME280;11853;48.080;11.960;2023-08-07T01:56:24;94510.59;;;11.49;100.00
23363;BME280;11853;48.080;11.960;2023-08-07T01:58:49;94515.41;;;11.54;100.00
23363;BME280;11853;48.080;11.960;2023-08-07T02:01:15;94523.72;;;11.59;100.00
23363;BME280;11853;48.080;11.960;2023-08-07T02:03:40;94509.28;;;11.54;100.00
23363;BME280;11853;48.080;11.960;2023-08-07T02:06:06;94519.91;;;11.62;100.00
23363;BME280;11853;48.080;11.960;2023-08-07T02:08:31;94514.91;;;11.50;100.00
23363;BME280;11853;48.080;11.960;2023-08-07T02:10:57;94513.56;;;11.46;100.00
23363;BME280;11853;48.080;11.960;2023-08-07T02:13:22;94516.91;;;11.48;100.00
23363;BME280;11853;48.080;11.960;2023-08-07T02:15:48;94512.59;;;11.39;100.00
23363;BME280;11853;48.080;11.960;2023-08-07T02:18:14;94521.22;;;11.41;100.00
23363;BME280;11853;48.080;11.960;2023-08-07T02:20:39;94517.38;;;11.36;100.00
23363;BME280;11853;48.080;11.960;2023-08-07T02:23:05;94524.03;;;11.40;100.00
23363;BME280;11853;48.080;11.960;2023-08-07T02:25:30;94527.53;;;11.32;100.00
23363;BME280;11853;48.080;11.960;2023-08-07T02:27:56;94522.03;;;11.25;100.00
23363;BME280;11853;48.080;11.960;2023-08-07T02:30:21;94529.19;;;11.25;100.00
23363;BME280;11853;48.080;11.960;2023-08-07T02:32:47;94529.19;;;11.25;100.00
23363;BME280;11853;48.080;11.960;2023-08-07T02:35:12;94520.53;;;11.23;100.00
23363;BME280;11853;48.080;11.960;2023-08-07T02:37:38;94528.19;;;11.26;100.00
23363;BME280;11853;48.080;11.960;2023-08-07T02:40:04;94532.16;;;11.30;100.00
23363;BME280;11853;48.080;11.960;2023-08-07T02:42:30;94540.97;;;11.31;100.00
23363;BME280;11853;48.080;11.960;2023-08-07T02:44:55;94531.19;;;11.31;100.00
23363;BME280;11853;48.080;11.960;2023-08-07T02:47:21;94535.31;;;11.17;100.00
23363;BME280;11853;48.080;11.960;2023-08-07T02:49:46;94537.81;;;11.19;100.00
23363;BME280;11853;48.080;11.960;2023-08-07T02:52:12;94544.09;;;11.18;100.00
23363;BME280;11853;48.080;11.960;2023-08-07T02:54:37;94540.78;;;11.16;100.00
23363;BME280;11853;48.080;11.960;2023-08-07T02:57:03;94541.63;;;11.16;100.00
23363;BME280;11853;48.080;11.960;2023-08-07T02:59:29;94547.78;;;11.25;100.00
23363;BME280;11853;48.080;11.960;2023-08-07T03:01:54;94542.28;;;11.26;100.00
23363;BME280;11853;48.080;11.960;2023-08-07T03:04:20;94544.13;;;11.26;100.00
23363;BME280;11853;48.080;11.960;2023-08-07T03:06:45;94547.78;;;11.25;100.00
23363;BME280;11853;48.080;11.960;2023-08-07T03:09:11;94550.41;;;11.17;100.00
23363;BME280;11853;48.080;11.960;2023-08-07T03:11:36;94550.72;;;11.05;100.00
23363;BME280;11853;48.080;11.960;2023-08-07T03:14:02;94557.69;;;11.15;100.00
23363;BME280;11853;48.080;11.960;2023-08-07T03:16:28;94553.06;;;11.17;100.00
23363;BME280;11853;48.080;11.960;2023-08-07T03:18:54;94560.72;;;11.20;100.00
23363;BME280;11853;48.080;11.960;2023-08-07T03:21:19;94558.72;;;11.22;100.00
23363;BME280;11853;48.080;11.960;2023-08-07T03:23:45;94553.88;;;11.09;100.00
23363;BME280;11853;48.080;11.960;2023-08-07T03:26:11;94558.38;;;11.09;100.00
23363;BME280;11853;48.080;11.960;2023-08-07T03:28:37;94560.00;;;11.10;100.00
23363;BME280;11853;48.080;11.960;2023-08-07T03:31:03;94557.69;;;11.15;100.00
23363;BME280;11853;48.080;11.960;2023-08-07T03:33:29;94552.06;;;11.18;100.00
23363;BME280;11853;48.080;11.960;2023-08-07T03:35:55;94555.06;;;11.23;100.00
23363;BME280;11853;48.080;11.960;2023-08-07T03:38:20;94559.06;;;11.19;100.00
23363;BME280;11853;48.080;11.960;2023-08-07T03:40:46;94559.69;;;11.21;100.00
23363;BME280;11853;48.080;11.960;2023-08-07T03:43:12;94561.38;;;11.22;100.00
23363;BME280;11853;48.080;11.960;2023-08-07T03:45:38;94569.03;;;11.25;100.00
23363;BME280;11853;48.080;11.960;2023-08-07T03:48:04;94577.31;;;11.30;100.00
23363;BME280;11853;48.080;11.960;2023-08-07T03:50:30;94581.28;;;11.26;100.00
23363;BME280;11853;48.080;11.960;2023-08-07T03:52:56;94575.81;;;11.19;100.00
23363;BME280;11853;48.080;11.960;2023-08-07T03:55:21;94581.63;;;11.23;100.00
23363;BME280;11853;48.080;11.960;2023-08-07T03:57:47;94583.28;;;11.24;100.00
23363;BME280;11853;48.080;11.960;2023-08-07T04:00:13;94579.47;;;11.26;100.00
23363;BME280;11853;48.080;11.960;2023-08-07T04:02:39;94587.59;;;11.25;100.00
23363;BME280;11853;48.080;11.960;2023-08-07T04:05:05;94583.78;;;11.19;100.00
23363;BME280;11853;48.080;11.960;2023-08-07T04:07:31;94578.97;;;11.23;100.00
23363;BME280;11853;48.080;11.960;2023-08-07T04:09:56;94588.25;;;11.27;100.00
23363;BME280;11853;48.080;11.960;2023-08-07T04:12:22;94587.09;;;11.30;100.00
23363;BME280;11853;48.080;11.960;2023-08-07T04:14:48;94585.94;;;11.32;100.00
23363;BME280;11853;48.080;11.960;2023-08-07T04:17:13;94585.44;;;11.28;100.00
23363;BME280;11853;48.080;11.960;2023-08-07T04:19:39;94580.13;;;11.28;100.00
23363;BME280;11853;48.080;11.960;2023-08-07T04:22:04;94579.28;;;11.20;100.00
23363;BME280;11853;48.080;11.960;2023-08-07T04:24:30;94592.56;;;11.20;100.00
23363;BME280;11853;48.080;11.960;2023-08-07T04:26:56;94579.47;;;11.26;100.00
23363;BME280;11853;48.080;11.960;2023-08-07T04:29:21;94589.09;;;11.27;100.00
23363;BME280;11853;48.080;11.960;2023-08-07T04:31:47;94587.94;;;11.22;100.00
23363;BME280;11853;48.080;11.960;2023-08-07T04:34:13;94592.25;;;11.23;100.00
23363;BME280;11853;48.080;11.960;2023-08-07T04:36:38;94597.91;;;11.28;100.00
23363;BME280;11853;48.080;11.960;2023-08-07T04:39:04;94596.38;;;11.17;100.00
23363;BME280;11853;48.080;11.960;2023-08-07T04:41:29;94590.91;;;11.19;100.00
23363;BME280;11853;48.080;11.960;2023-08-07T04:43:55;94596.72;;;11.22;100.00
23363;BME280;11853;48.080;11.960;2023-08-07T04:46:21;94606.00;;;11.18;100.00
23363;BME280;11853;48.080;11.960;2023-08-07T04:48:46;94613.13;;;11.18;100.00
23363;BME280;11853;48.080;11.960;2023-08-07T04:51:13;94615.31;;;11.22;100.00
23363;BME280;11853;48.080;11.960;2023-08-07T04:53:38;94615.63;;;11.19;100.00
23363;BME280;11853;48.080;11.960;2023-08-07T04:56:04;94616.97;;;11.23;100.00
23363;BME280;11853;48.080;11.960;2023-08-07T04:58:29;94615.13;;;11.24;100.00
23363;BME280;11853;48.080;11.960;2023-08-07T05:00:55;94610.84;;;11.31;100.00
23363;BME280;11853;48.080;11.960;2023-08-07T05:03:21;94622.78;;;11.35;100.00
23363;BME280;11853;48.080;11.960;2023-08-07T05:05:47;94617.81;;;11.32;100.00
23363;BME280;11853;48.080;11.960;2023-08-07T05:08:12;94629.47;;;11.39;100.00
23363;BME280;11853;48.080;11.960;2023-08-07T05:10:38;94619.16;;;11.44;100.00
23363;BME280;11853;48.080;11.960;2023-08-07T05:13:04;94622.78;;;11.35;100.00
23363;BME280;11853;48.080;11.960;2023-08-07T05:15:29;94627.13;;;11.36;100.00
23363;BME280;11853;48.080;11.960;2023-08-07T05:17:56;94626.47;;;11.34;100.00
23363;BME280;11853;48.080;11.960;2023-08-07T05:20:22;94631.94;;;11.41;100.00
23363;BME280;11853;48.080;11.960;2023-08-07T05:22:47;94637.09;;;11.42;100.00
23363;BME280;11853;48.080;11.960;2023-08-07T05:25:13;94629.28;;;11.41;100.00
23363;BME280;11853;48.080;11.960;2023-08-07T05:27:42;94633.78;;;11.40;100.00
23363;BME280;11853;48.080;11.960;2023-08-07T05:30:08;94637.09;;;11.34;100.00
23363;BME280;11853;48.080;11.960;2023-08-07T05:32:33;94639.22;;;11.39;100.00
23363;BME280;11853;48.080;11.960;2023-08-07T05:35:06;94647.69;;;11.34;100.00
23363;BME280;11853;48.080;11.960;2023-08-07T05:37:33;94643.22;;;11.35;100.00
23363;BME280;11853;48.080;11.960;2023-08-07T05:39:58;94643.72;;;11.38;100.00
23363;BME280;11853;48.080;11.960;2023-08-07T05:42:24;94636.59;;;11.47;100.00
23363;BME280;11853;48.080;11.960;2023-08-07T05:44:50;94649.06;;;11.55;100.00
23363;BME280;11853;48.080;11.960;2023-08-07T05:47:15;94649.22;;;11.53;100.00
23363;BME280;11853;48.080;11.960;2023-08-07T05:49:41;94645.94;;;11.59;100.00
23363;BME280;11853;48.080;11.960;2023-08-07T05:52:07;94658.03;;;11.54;100.00
23363;BME280;11853;48.080;11.960;2023-08-07T05:54:33;94661.69;;;11.53;100.00
23363;BME280;11853;48.080;11.960;2023-08-07T05:56:58;94663.00;;;11.48;100.00
23363;BME280;11853;48.080;11.960;2023-08-07T05:59:24;94663.69;;;11.50;100.00
23363;BME280;11853;48.080;11.960;2023-08-07T06:01:50;94670.47;;;11.45;100.00
23363;BME280;11853;48.080;11.960;2023-08-07T06:04:16;94679.44;;;11.52;100.00
23363;BME280;11853;48.080;11.960;2023-08-07T06:06:42;94679.13;;;11.55;100.00
23363;BME280;11853;48.080;11.960;2023-08-07T06:09:08;94659.06;;;11.69;100.00
23363;BME280;11853;48.080;11.960;2023-08-07T06:11:34;94665.06;;;11.79;100.00
23363;BME280;11853;48.080;11.960;2023-08-07T06:13:59;94672.03;;;11.80;100.00
23363;BME280;11853;48.080;11.960;2023-08-07T06:16:25;94677.00;;;11.75;100.00
23363;BME280;11853;48.080;11.960;2023-08-07T06:18:51;94681.66;;;11.65;100.00
23363;BME280;11853;48.080;11.960;2023-08-07T06:21:16;94678.31;;;11.63;100.00
23363;BME280;11853;48.080;11.960;2023-08-07T06:23:42;94688.75;;;11.64;100.00
23363;BME280;11853;48.080;11.960;2023-08-07T06:26:07;94688.44;;;11.67;100.00
23363;BME280;11853;48.080;11.960;2023-08-07T06:28:34;94694.63;;;11.76;100.00
23363;BME280;11853;48.080;11.960;2023-08-07T06:31:09;94690.63;;;11.80;100.00
23363;BME280;11853;48.080;11.960;2023-08-07T06:33:36;94679.19;;;11.80;100.00
23363;BME280;11853;48.080;11.960;2023-08-07T06:36:03;94688.13;;;11.79;100.00
23363;BME280;11853;48.080;11.960;2023-08-07T06:38:29;94694.78;;;11.83;100.00
23363;BME280;11853;48.080;11.960;2023-08-07T06:40:55;94696.63;;;11.82;100.00
23363;BME280;11853;48.080;11.960;2023-08-07T06:43:25;94700.31;;;11.89;100.00
23363;BME280;11853;48.080;11.960;2023-08-07T06:45:54;94691.16;;;11.92;100.00
23363;BME280;11853;48.080;11.960;2023-08-07T06:48:20;94698.31;;;11.91;100.00
23363;BME280;11853;48.080;11.960;2023-08-07T06:50:49;94705.28;;;11.92;100.00
23363;BME280;11853;48.080;11.960;2023-08-07T06:53:15;94709.44;;;11.95;100.00
23363;BME280;11853;48.080;11.960;2023-08-07T06:55:42;94695.69;;;12.00;100.00
23363;BME280;11853;48.080;11.960;2023-08-07T06:58:08;94711.44;;;12.01;100.00
23363;BME280;11853;48.080;11.960;2023-08-07T07:00:34;94706.13;;;12.01;100.00
23363;BME280;11853;48.080;11.960;2023-08-07T07:03:01;94709.47;;;12.11;100.00
23363;BME280;11853;48.080;11.960;2023-08-07T07:05:27;94710.31;;;12.28;100.00
23363;BME280;11853;48.080;11.960;2023-08-07T07:07:53;94722.94;;;12.34;100.00
23363;BME280;11853;48.080;11.960;2023-08-07T07:10:22;94719.28;;;12.35;100.00
23363;BME280;11853;48.080;11.960;2023-08-07T07:12:48;94722.28;;;12.40;100.00
23363;BME280;11853;48.080;11.960;2023-08-07T07:15:13;94721.25;;;12.42;100.00
23363;BME280;11853;48.080;11.960;2023-08-07T07:17:39;94722.28;;;12.49;100.00
23363;BME280;11853;48.080;11.960;2023-08-07T07:20:05;94723.41;;;12.62;100.00
23363;BME280;11853;48.080;11.960;2023-08-07T07:22:31;94719.94;;;12.62;99.09
23363;BME280;11853;48.080;11.960;2023-08-07T07:24:56;94715.09;;;12.66;97.18
23363;BME280;11853;48.080;11.960;2023-08-07T07:27:22;94720.22;;;12.67;97.77
23363;BME280;11853;48.080;11.960;2023-08-07T07:29:48;94729.56;;;12.71;98.81
23363;BME280;11853;48.080;11.960;2023-08-07T07:32:14;94732.56;;;12.76;98.25
23363;BME280;11853;48.080;11.960;2023-08-07T07:34:40;94741.50;;;12.83;98.35
23363;BME280;11853;48.080;11.960;2023-08-07T07:37:05;94743.16;;;12.84;97.58
23363;BME280;11853;48.080;11.960;2023-08-07T07:39:31;94743.81;;;12.95;98.27
23363;BME280;11853;48.080;11.960;2023-08-07T07:41:56;94749.63;;;13.06;99.05
23363;BME280;11853;48.080;11.960;2023-08-07T07:44:22;94755.75;;;13.15;98.77
23363;BME280;11853;48.080;11.960;2023-08-07T07:46:48;94746.09;;;13.31;98.15
23363;BME280;11853;48.080;11.960;2023-08-07T07:49:13;94743.56;;;13.37;93.61
23363;BME280;11853;48.080;11.960;2023-08-07T07:51:39;94752.72;;;13.35;93.64
23363;BME280;11853;48.080;11.960;2023-08-07T07:54:05;94757.72;;;13.38;92.99
23363;BME280;11853;48.080;11.960;2023-08-07T07:56:31;94756.69;;;13.47;93.35
23363;BME280;11853;48.080;11.960;2023-08-07T07:58:56;94755.34;;;13.51;92.11
23363;BME280;11853;48.080;11.960;2023-08-07T08:01:22;94767.19;;;13.48;89.57
23363;BME280;11853;48.080;11.960;2023-08-07T08:03:48;94759.00;;;13.50;91.70
23363;BME280;11853;48.080;11.960;2023-08-07T08:06:14;94758.97;;;13.58;90.98
23363;BME280;11853;48.080;11.960;2023-08-07T08:08:39;94769.28;;;13.61;90.12
23363;BME280;11853;48.080;11.960;2023-08-07T08:11:05;94774.94;;;13.66;91.91
23363;BME280;11853;48.080;11.960;2023-08-07T08:13:30;94770.63;;;13.65;91.65
23363;BME280;11853;48.080;11.960;2023-08-07T08:15:56;94785.13;;;13.63;90.76
23363;BME280;11853;48.080;11.960;2023-08-07T08:18:22;94779.13;;;13.61;88.95
23363;BME280;11853;48.080;11.960;2023-08-07T08:20:47;94788.28;;;13.58;90.57
23363;BME280;11853;48.080;11.960;2023-08-07T08:23:13;94787.97;;;13.53;91.57
23363;BME280;11853;48.080;11.960;2023-08-07T08:25:38;94787.50;;;13.49;90.08
23363;BME280;11853;48.080;11.960;2023-08-07T08:28:04;94787.03;;;13.38;90.30
23363;BME280;11853;48.080;11.960;2023-08-07T08:30:30;94782.19;;;13.41;92.71
23363;BME280;11853;48.080;11.960;2023-08-07T08:32:55;94798.50;;;13.46;92.55
23363;BME280;11853;48.080;11.960;2023-08-07T08:35:21;94806.00;;;13.43;90.56
23363;BME280;11853;48.080;11.960;2023-08-07T08:37:47;94804.00;;;13.45;91.97
23363;BME280;11853;48.080;11.960;2023-08-07T08:40:12;94792.84;;;13.41;91.26
23363;BME280;11853;48.080;11.960;2023-08-07T08:42:43;94810.00;;;13.39;89.19
23363;BME280;11853;48.080;11.960;2023-08-07T08:45:12;94817.00;;;13.40;91.29
23363;BME280;11853;48.080;11.960;2023-08-07T08:47:39;94808.00;;;13.41;90.13
23363;BME280;11853;48.080;11.960;2023-08-07T08:50:10;94812.00;;;13.45;91.22
23363;BME280;11853;48.080;11.960;2023-08-07T08:52:38;94816.81;;;13.49;90.55
23363;BME280;11853;48.080;11.960;2023-08-07T08:55:04;94809.16;;;13.46;88.75
23363;BME280;11853;48.080;11.960;2023-08-07T08:57:32;94811.31;;;13.51;89.39
23363;BME280;11853;48.080;11.960;2023-08-07T08:59:58;94819.59;;;13.56;91.21
23363;BME280;11853;48.080;11.960;2023-08-07T09:02:25;94818.41;;;13.67;90.09
23363;BME280;11853;48.080;11.960;2023-08-07T09:04:51;94805.88;;;13.75;89.84
23363;BME280;11853;48.080;11.960;2023-08-07T09:07:19;94804.81;;;13.85;91.63
23363;BME280;11853;48.080;11.960;2023-08-07T09:09:46;94818.81;;;13.87;88.64
23363;BME280;11853;48.080;11.960;2023-08-07T09:12:16;94814.28;;;13.95;90.53
23363;BME280;11853;48.080;11.960;2023-08-07T09:14:53;94821.59;;;14.02;91.78
23363;BME280;11853;48.080;11.960;2023-08-07T09:17:28;94819.28;;;13.98;89.93
23363;BME280;11853;48.080;11.960;2023-08-07T09:19:55;94821.22;;;14.05;90.34
23363;BME280;11853;48.080;11.960;2023-08-07T09:22:21;94820.69;;;14.17;90.02
23363;BME280;11853;48.080;11.960;2023-08-07T09:24:47;94822.69;;;14.15;87.66
23363;BME280;11853;48.080;11.960;2023-08-07T09:27:13;94828.50;;;14.19;87.37
23363;BME280;11853;48.080;11.960;2023-08-07T09:29:40;94817.53;;;14.14;85.51
23363;BME280;11853;48.080;11.960;2023-08-07T09:32:07;94815.69;;;14.14;86.67
23363;BME280;11853;48.080;11.960;2023-08-07T09:34:33;94817.63;;;14.29;88.66
23363;BME280;11853;48.080;11.960;2023-08-07T09:36:59;94814.25;;;14.35;87.97
23363;BME280;11853;48.080;11.960;2023-08-07T09:39:24;94815.69;;;14.46;87.14
23363;BME280;11853;48.080;11.960;2023-08-07T09:41:53;94809.47;;;14.53;85.63
23363;BME280;11853;48.080;11.960;2023-08-07T09:44:19;94807.81;;;14.52;85.20
23363;BME280;11853;48.080;11.960;2023-08-07T09:46:44;94815.84;;;14.44;84.77
23363;BME280;11853;48.080;11.960;2023-08-07T09:49:10;94813.84;;;14.46;84.94
23363;BME280;11853;48.080;11.960;2023-08-07T09:51:46;94819.16;;;14.54;83.08
23363;BME280;11853;48.080;11.960;2023-08-07T09:54:12;94808.50;;;14.46;86.10
23363;BME280;11853;48.080;11.960;2023-08-07T09:56:40;94821.84;;;14.46;86.79
23363;BME280;11853;48.080;11.960;2023-08-07T09:59:07;94822.00;;;14.45;87.18
23363;BME280;11853;48.080;11.960;2023-08-07T10:01:33;94827.84;;;14.48;87.25
23363;BME280;11853;48.080;11.960;2023-08-07T10:04:01;94832.50;;;14.54;84.66
23363;BME280;11853;48.080;11.960;2023-08-07T10:06:27;94828.81;;;14.55;86.65
23363;BME280;11853;48.080;11.960;2023-08-07T10:08:54;94838.41;;;14.64;88.40
23363;BME280;11853;48.080;11.960;2023-08-07T10:11:20;94829.81;;;14.77;87.04
23363;BME280;11853;48.080;11.960;2023-08-07T10:13:47;94831.41;;;14.86;86.42
23363;BME280;11853;48.080;11.960;2023-08-07T10:16:13;94836.22;;;14.91;85.32
23363;BME280;11853;48.080;11.960;2023-08-07T10:18:39;94832.63;;;14.99;86.89
23363;BME280;11853;48.080;11.960;2023-08-07T10:21:06;94830.00;;;15.14;88.02
23363;BME280;11853;48.080;11.960;2023-08-07T10:23:35;94823.03;;;15.27;88.21
23363;BME280;11853;48.080;11.960;2023-08-07T10:26:04;94816.25;;;15.40;88.38
23363;BME280;11853;48.080;11.960;2023-08-07T10:28:33;94807.00;;;15.42;88.18
23363;BME280;11853;48.080;11.960;2023-08-07T10:31:04;94816.13;;;15.48;87.67
23363;BME280;11853;48.080;11.960;2023-08-07T10:33:31;94820.03;;;15.60;85.84
23363;BME280;11853;48.080;11.960;2023-08-07T10:35:57;94818.41;;;15.74;85.80
23363;BME280;11853;48.080;11.960;2023-08-07T10:38:25;94821.31;;;15.79;85.71
23363;BME280;11853;48.080;11.960;2023-08-07T10:43:43;94808.69;;;15.88;84.47
23363;BME280;11853;48.080;11.960;2023-08-07T10:46:14;94831.03;;;15.80;82.15
23363;BME280;11853;48.080;11.960;2023-08-07T10:48:42;94829.94;;;15.74;82.77
23363;BME280;11853;48.080;11.960;2023-08-07T10:51:15;94808.69;;;15.73;82.33
23363;BME280;11853;48.080;11.960;2023-08-07T10:53:46;94812.69;;;15.77;84.57
23363;BME280;11853;48.080;11.960;2023-08-07T10:56:17;94810.44;;;15.95;83.65
23363;BME280;11853;48.080;11.960;2023-08-07T10:58:49;94809.94;;;16.07;81.02
23363;BME280;11853;48.080;11.960;2023-08-07T11:01:40;94803.84;;;16.13;81.51
23363;BME280;11853;48.080;11.960;2023-08-07T11:04:08;94802.38;;;16.10;79.06
23363;BME280;11853;48.080;11.960;2023-08-07T11:06:35;94791.31;;;15.98;80.51
23363;BME280;11853;48.080;11.960;2023-08-07T11:09:03;94797.16;;;15.87;80.16
23363;BME280;11853;48.080;11.960;2023-08-07T11:11:38;94791.81;;;15.87;82.65
23363;BME280;11853;48.080;11.960;2023-08-07T11:14:12;94795.94;;;15.90;80.14
23363;BME280;11853;48.080;11.960;2023-08-07T11:16:38;94803.44;;;15.94;79.66
23363;BME280;11853;48.080;11.960;2023-08-07T11:19:04;94800.94;;;15.93;78.52
23363;BME280;11853;48.080;11.960;2023-08-07T11:21:31;94800.91;;;16.08;80.34
23363;BME280;11853;48.080;11.960;2023-08-07T11:23:57;94806.41;;;16.21;81.36
23363;BME280;11853;48.080;11.960;2023-08-07T11:26:23;94806.31;;;16.29;79.91
23363;BME280;11853;48.080;11.960;2023-08-07T11:28:51;94806.09;;;16.31;82.02
23363;BME280;11853;48.080;11.960;2023-08-07T11:31:18;94801.06;;;16.21;79.05
23363;BME280;11853;48.080;11.960;2023-08-07T11:33:44;94794.56;;;16.30;81.21
23363;BME280;11853;48.080;11.960;2023-08-07T11:36:13;94800.72;;;16.46;83.43
23363;BME280;11853;48.080;11.960;2023-08-07T11:38:40;94796.63;;;16.50;81.74
23363;BME280;11853;48.080;11.960;2023-08-07T11:41:08;94806.28;;;16.65;82.36
23363;BME280;11853;48.080;11.960;2023-08-07T11:43:36;94801.28;;;16.77;80.19
23363;BME280;11853;48.080;11.960;2023-08-07T11:46:06;94807.44;;;16.78;77.39
23363;BME280;11853;48.080;11.960;2023-08-07T11:48:34;94808.63;;;16.75;76.74
23363;BME280;11853;48.080;11.960;2023-08-07T11:51:00;94800.78;;;16.74;76.94
23363;BME280;11853;48.080;11.960;2023-08-07T11:53:28;94808.75;;;16.67;76.56
23363;BME280;11853;48.080;11.960;2023-08-07T11:55:59;94812.47;;;16.66;79.06
23363;BME280;11853;48.080;11.960;2023-08-07T11:58:26;94806.59;;;16.56;81.15
23363;BME280;11853;48.080;11.960;2023-08-07T12:00:53;94811.44;;;16.46;79.22
23363;BME280;11853;48.080;11.960;2023-08-07T12:06:20;94825.03;;;16.29;79.66
23363;BME280;11853;48.080;11.960;2023-08-07T12:08:49;94828.47;;;16.23;83.06
23363;BME280;11853;48.080;11.960;2023-08-07T12:11:15;94832.91;;;16.16;83.96
23363;BME280;11853;48.080;11.960;2023-08-07T12:13:42;94836.16;;;16.11;83.81
23363;BME280;11853;48.080;11.960;2023-08-07T12:16:09;94841.50;;;15.96;85.47
23363;BME280;11853;48.080;11.960;2023-08-07T12:18:35;94840.50;;;15.68;86.64
23363;BME280;11853;48.080;11.960;2023-08-07T12:21:04;94844.25;;;15.59;89.60
23363;BME280;11853;48.080;11.960;2023-08-07T12:23:34;94837.06;;;15.44;90.61
23363;BME280;11853;48.080;11.960;2023-08-07T12:26:01;94838.09;;;15.43;91.44
23363;BME280;11853;48.080;11.960;2023-08-07T12:28:27;94845.09;;;15.44;90.77
23363;BME280;11853;48.080;11.960;2023-08-07T12:30:53;94840.41;;;15.61;92.15
23363;BME280;11853;48.080;11.960;2023-08-07T12:33:19;94839.59;;;15.75;91.98
23363;BME280;11853;48.080;11.960;2023-08-07T12:35:44;94823.16;;;15.93;90.65
23363;BME280;11853;48.080;11.960;2023-08-07T12:38:10;94832.13;;;16.01;85.36
23363;BME280;11853;48.080;11.960;2023-08-07T12:40:38;94838.13;;;16.03;84.62
23363;BME280;11853;48.080;11.960;2023-08-07T12:43:04;94835.81;;;15.99;83.54
23363;BME280;11853;48.080;11.960;2023-08-07T12:45:30;94836.81;;;15.98;82.19
23363;BME280;11853;48.080;11.960;2023-08-07T12:47:56;94842.91;;;15.92;77.32
23363;BME280;11853;48.080;11.960;2023-08-07T12:50:21;94840.72;;;15.81;78.25